This is the latest recevied weather packets stored in our database for station/object K6CQU-13. If no packets are shown the sender has not sent any weather packets the latest 10 day(s).
| Time | Temp. | Humidity | Pressure | Rain* | Wind** | Luminosity | Snow |
|---|---|---|---|---|---|---|---|
| 1777868718 | 13.89° C | 72% | 1013.4 hPa | 0 mm | - | 0 W/m² | - |
| 1777868417 | 13.89° C | 72% | 1013.3 hPa | 0 mm | - | 0 W/m² | - |
| 1777868117 | 14.44° C | 71% | 1013.3 hPa | 0 mm | - | 0 W/m² | - |
| 1777867817 | 14.44° C | 71% | 1013.2 hPa | 0 mm | - | 0 W/m² | - |
| 1777867517 | 14.44° C | 70% | 1013.1 hPa | 0 mm | - | 0 W/m² | - |
| 1777867217 | 14.44° C | 70% | 1013 hPa | 0 mm | - | 0 W/m² | - |
| 1777866918 | 14.44° C | 69% | 1012.9 hPa | 0 mm | - | 0 W/m² | - |
| 1777866617 | 14.44° C | 69% | 1012.8 hPa | 0 mm | - | 0 W/m² | - |
| 1777866017 | 14.44° C | 68% | 1012.7 hPa | 0 mm | - | 0 W/m² | - |
| 1777865717 | 15° C | 68% | 1012.6 hPa | 0 mm | - | 0 W/m² | - |
| 1777847116 | 20° C | 56% | 1011.4 hPa | 0 mm | - | 774 W/m² | - |
| 1777846816 | 20° C | 54% | 1011.5 hPa | 0 mm | - | 303 W/m² | - |
| 1777846216 | 21.11° C | 51% | 1011.6 hPa | 0 mm | - | 295 W/m² | - |
| 1777843216 | 21.67° C | 49% | 1012 hPa | 0 mm | - | 243 W/m² | - |
| 1777842916 | 21.67° C | 48% | 1011.9 hPa | 0 mm | - | 245 W/m² | - |
| 1777842626 | 22.22° C | 48% | 1011.9 hPa | 0 mm | - | 858 W/m² | - |
| 1777842316 | 22.22° C | 48% | 1012 hPa | 0 mm | - | 1125 W/m² | - |
| 1777842016 | 21.67° C | 50% | 1012 hPa | 0 mm | - | 813 W/m² | - |
| 1777840216 | 21.67° C | 50% | 1011.9 hPa | 0 mm | - | 528 W/m² | - |
| 1777839916 | 21.11° C | 51% | 1012 hPa | 0 mm | - | 1100 W/m² | - |
| 1777839616 | 21.11° C | 51% | 1012 hPa | 0 mm | - | 1031 W/m² | - |
| 1777839318 | 21.11° C | 49% | 1012 hPa | 0 mm | - | 633 W/m² | - |
| 1777838718 | 21.11° C | 51% | 1012.1 hPa | 0 mm | - | 993 W/m² | - |
| 1777837521 | 20.56° C | 52% | 1012.3 hPa | 0 mm | - | 728 W/m² | - |
| 1777835418 | 20.56° C | 53% | 1012.5 hPa | 0 mm | - | 876 W/m² | - |
* Rain latest hour (hover to see other rain measurements)
** Current wind speed in m/s (hover to see current wind gust speed)